Adventuress — WCX8691 — position and weather

sailwx.info

Track history (hours):
 
Tides and Currents Weather Stations Pressure Air Temp Water Temp Dewpoint Dewpoint Depression Visibility Wind Speed Wind Dir Waves Ship Positions

Adventuress (United States)

Ship's website: http://www.soundexp.org/

Owner: SOUND EXPERIENCE, PORT TOWNSEND, WA. More information available from US FCC via Universal Licensing System and Coast Guard Vessel Documentation Center.

Last reported at 2017-Oct-04 18:04 UTC. Time now 2017-Nov-20 05:54 UTC.
Position N 47°56' W 122°33'.
Warning: this ship's position is 46 days out of date.

Type: Passenger vessel. MMSI: 367323180.

Date/timePositionNaut miles runAvg speedWind from/ knotsBaromVisibWave heightAir tempDewpointWater temp
2017-Oct-04 18:04N 47°56' W 122°33'1 3.2
2017-Oct-04 17:53N 47°56' W 122°32'2 4.7
2017-Oct-04 17:30N 47°54' W 122°31'4 7.3
2017-Oct-04 17:00N 47°51' W 122°29'6 0.6
2017-Oct-04 07:16N 47°44' W 122°29'0 0.0
2017-Oct-04 06:58N 47°44' W 122°29'4 0.4
2017-Oct-03 20:23N 47°40' W 122°29'2 3.4
2017-Oct-03 19:47N 47°38' W 122°29'1 0.1
2017-Oct-02 23:48N 47°37' W 122°30'1 2.7
2017-Oct-02 23:24N 47°37' W 122°29'2 4.0
2017-Oct-02 23:01N 47°38' W 122°27'3 6.5
2017-Oct-02 22:30N 47°41' W 122°25'1 1.0
2017-Oct-02 21:55N 47°41' W 122°24'0 0.1
2017-Oct-02 21:28N 47°41' W 122°24'0 0.0
2017-Oct-02 20:46N 47°41' W 122°24'0 0.0
2017-Oct-02 20:28N 47°41' W 122°24'0 0.0
2017-Oct-02 19:40N 47°41' W 122°24'0 0.0
2017-Oct-02 19:28N 47°41' W 122°24'0 0.0
2017-Oct-02 18:58N 47°41' W 122°24'0 0.0
2017-Oct-02 18:28N 47°41' W 122°24'0 0.0
2017-Oct-02 17:52N 47°41' W 122°24'0 0.0
2017-Oct-02 17:28N 47°41' W 122°24'0 0.0
2017-Oct-02 16:58N 47°41' W 122°24'0 0.0
2017-Oct-02 16:28N 47°41' W 122°24'3 0.2
2017-Oct-01 21:33N 47°39' W 122°29'0 1.1
2017-Oct-01 21:30N 47°39' W 122°29'2 4.5
2017-Oct-01 21:00N 47°37' W 122°28'2 3.6
2017-Oct-01 20:28N 47°35' W 122°28'3 6.0
2017-Oct-01 20:00N 47°33' W 122°29'14 5.8
2017-Oct-01 17:37N 47°19' W 122°29'1 6.2
2017-Oct-01 17:29N 47°18' W 122°29'3 0.1
2017-Sep-29 21:08N 47°19' W 122°34'4 0.1
2017-Sep-28 18:38N 47°20' W 122°28'0 0.5
2017-Sep-28 18:26N 47°20' W 122°28'3 6.5
2017-Sep-28 18:00N 47°22' W 122°25'3 5.5
2017-Sep-28 17:30N 47°24' W 122°23'3 6.6
2017-Sep-28 17:00N 47°27' W 122°23'3 6.8
2017-Sep-28 16:30N 47°31' W 122°24'4 6.9
2017-Sep-28 16:00N 47°34' W 122°26'3 6.4
2017-Sep-28 15:29N 47°37' W 122°26'3 6.5
2017-Sep-28 15:00N 47°40' W 122°26'1 0.7
2017-Sep-28 13:30N 47°41' W 122°24'0 0.0
2017-Sep-28 13:00N 47°41' W 122°24'0 0.0
2017-Sep-28 12:27N 47°41' W 122°24'0 0.0
2017-Sep-28 12:00N 47°41' W 122°24'0 0.0
2017-Sep-28 11:30N 47°41' W 122°24'0 0.0
2017-Sep-28 10:54N 47°41' W 122°24'0 0.0
2017-Sep-28 10:30N 47°41' W 122°24'0 0.0
2017-Sep-28 10:00N 47°41' W 122°24'0 0.0
2017-Sep-28 09:30N 47°41' W 122°24'0 0.0
2017-Sep-28 08:57N 47°41' W 122°24'0 0.0
2017-Sep-28 08:27N 47°41' W 122°24'0 0.0
2017-Sep-28 08:00N 47°41' W 122°24'0 0.0
2017-Sep-28 07:30N 47°41' W 122°24'0 0.0
2017-Sep-28 07:00N 47°41' W 122°24'0 0.0
2017-Sep-28 06:30N 47°41' W 122°24'0 0.0
2017-Sep-27 23:24N 47°41' W 122°24'0 0.0
2017-Sep-27 23:00N 47°41' W 122°24'0 0.1
2017-Sep-27 22:30N 47°41' W 122°25'0 0.0
2017-Sep-27 20:45N 47°41' W 122°24'1 1.2
2017-Sep-27 20:18N 47°41' W 122°25'1 1.9
2017-Sep-27 20:00N 47°41' W 122°25'1 1.2
2017-Sep-27 19:29N 47°41' W 122°25'1 2.1
2017-Sep-27 19:00N 47°41' W 122°26'1 1.7
2017-Sep-27 18:30N 47°41' W 122°25'1 2.6
2017-Sep-27 17:59N 47°42' W 122°24'4 0.2
2017-Sep-27 01:13N 47°42' W 122°30'2 5.4
2017-Sep-27 00:56N 47°40' W 122°29'2 2.1
2017-Sep-26 23:50N 47°38' W 122°29'2 1.9
2017-Sep-26 22:54N 47°36' W 122°29'1 1.4
2017-Sep-26 22:30N 47°36' W 122°29'1 0.0
2017-Sep-26 00:38N 47°36' W 122°30'0 1.0
2017-Sep-26 00:30N 47°36' W 122°30'1 1.9
2017-Sep-26 00:00N 47°36' W 122°29'0 0.3
2017-Sep-25 22:57N 47°36' W 122°29'0 0.9
2017-Sep-25 22:30N 47°36' W 122°29'1 1.6
2017-Sep-25 22:00N 47°36' W 122°28'3 5.3
2017-Sep-25 21:30N 47°37' W 122°24'1 1.9
2017-Sep-25 21:00N 47°36' W 122°23'1 2.5
2017-Sep-25 20:30N 47°37' W 122°25'1 1.0
2017-Sep-25 19:59N 47°37' W 122°25'2 4.0
2017-Sep-25 19:29N 47°39' W 122°27'2 4.4
2017-Sep-25 19:00N 47°41' W 122°25'0 0.4
2017-Sep-25 18:28N 47°41' W 122°24'0 0.0
2017-Sep-25 17:58N 47°41' W 122°24'0 0.0
2017-Sep-25 17:28N 47°41' W 122°24'0 0.0
2017-Sep-25 16:58N 47°41' W 122°24'0 0.0
2017-Sep-25 15:10N 47°41' W 122°24'0 0.0
2017-Sep-25 14:55N 47°41' W 122°24'0 0.0
2017-Sep-25 14:28N 47°41' W 122°24'0 0.1
2017-Sep-25 13:58N 47°41' W 122°24'0 0.0
2017-Sep-25 13:28N 47°41' W 122°24'0 0.0
2017-Sep-25 12:58N 47°41' W 122°24'0 0.0
2017-Sep-25 12:25N 47°41' W 122°24'0 0.0
2017-Sep-25 11:58N 47°41' W 122°24'0 0.0
2017-Sep-25 11:19N 47°41' W 122°24'0 0.0
2017-Sep-25 10:58N 47°41' W 122°24'0 0.0
2017-Sep-25 10:28N 47°41' W 122°24'0 0.0
2017-Sep-25 09:58N 47°41' W 122°24'0 0.0
2017-Sep-25 09:25N 47°41' W 122°24'0 0.0
2017-Sep-25 08:58N 47°41' W 122°24'0 0.0
2017-Sep-25 08:28N 47°41' W 122°24'0 0.0
2017-Sep-25 07:58N 47°41' W 122°24'0 0.0
2017-Sep-25 07:28N 47°41' W 122°24'0 0.0
2017-Sep-25 03:16N 47°41' W 122°24'0 0.0
2017-Sep-25 02:58N 47°41' W 122°24'0 0.0
2017-Sep-25 02:28N 47°41' W 122°24'0 0.0
2017-Sep-25 01:58N 47°41' W 122°24'0 0.0
2017-Sep-25 01:28N 47°41' W 122°24'0 0.0
2017-Sep-25 00:58N 47°41' W 122°24'0 1.1
2017-Sep-25 00:30N 47°41' W 122°25'1 1.2
2017-Sep-25 00:00N 47°41' W 122°26'0 0.2
2017-Sep-24 23:30N 47°41' W 122°26'0 0.4
2017-Sep-24 23:00N 47°41' W 122°26'0 0.8
2017-Sep-24 22:30N 47°41' W 122°25'0 0.2
2017-Sep-24 20:56N 47°41' W 122°24'1 1.3
2017-Sep-24 20:30N 47°41' W 122°25'0 0.6
2017-Sep-24 20:00N 47°41' W 122°25'0 0.7
2017-Sep-24 19:30N 47°41' W 122°25'0 0.6
2017-Sep-24 19:00N 47°41' W 122°25'0 0.8
2017-Sep-24 18:30N 47°41' W 122°25'  
Track history (hours):
 
Tides and Currents Weather Stations Pressure Air Temp Water Temp Dewpoint Dewpoint Depression Visibility Wind Speed Wind Dir Waves Ship Positions

Adventuress (United States)

Ship's website: http://www.soundexp.org/

Owner: SOUND EXPERIENCE, PORT TOWNSEND, WA. More information available from US FCC via Universal Licensing System and Coast Guard Vessel Documentation Center.

Last reported at 2017-Oct-04 18:04 UTC. Time now 2017-Nov-20 05:54 UTC.
Position N 47°56' W 122°33'.
Warning: this ship's position is 46 days out of date.

Type: Passenger vessel. MMSI: 367323180.

Date/timePositionNaut miles runAvg speedWind from/ knotsBaromVisibWave heightAir tempDewpointWater temp
2017-Oct-04 18:04N 47°56' W 122°33'1 3.2
2017-Oct-04 17:53N 47°56' W 122°32'2 4.7
2017-Oct-04 17:30N 47°54' W 122°31'4 7.3
2017-Oct-04 17:00N 47°51' W 122°29'6 0.6
2017-Oct-04 07:16N 47°44' W 122°29'0 0.0
2017-Oct-04 06:58N 47°44' W 122°29'4 0.4
2017-Oct-03 20:23N 47°40' W 122°29'2 3.4
2017-Oct-03 19:47N 47°38' W 122°29'1 0.1
2017-Oct-02 23:48N 47°37' W 122°30'1 2.7
2017-Oct-02 23:24N 47°37' W 122°29'2 4.0
2017-Oct-02 23:01N 47°38' W 122°27'3 6.5
2017-Oct-02 22:30N 47°41' W 122°25'1 1.0
2017-Oct-02 21:55N 47°41' W 122°24'0 0.1
2017-Oct-02 21:28N 47°41' W 122°24'0 0.0
2017-Oct-02 20:46N 47°41' W 122°24'0 0.0
2017-Oct-02 20:28N 47°41' W 122°24'0 0.0
2017-Oct-02 19:40N 47°41' W 122°24'0 0.0
2017-Oct-02 19:28N 47°41' W 122°24'0 0.0
2017-Oct-02 18:58N 47°41' W 122°24'0 0.0
2017-Oct-02 18:28N 47°41' W 122°24'0 0.0
2017-Oct-02 17:52N 47°41' W 122°24'0 0.0
2017-Oct-02 17:28N 47°41' W 122°24'0 0.0
2017-Oct-02 16:58N 47°41' W 122°24'0 0.0
2017-Oct-02 16:28N 47°41' W 122°24'3 0.2
2017-Oct-01 21:33N 47°39' W 122°29'0 1.1
2017-Oct-01 21:30N 47°39' W 122°29'2 4.5
2017-Oct-01 21:00N 47°37' W 122°28'2 3.6
2017-Oct-01 20:28N 47°35' W 122°28'3 6.0
2017-Oct-01 20:00N 47°33' W 122°29'14 5.8
2017-Oct-01 17:37N 47°19' W 122°29'1 6.2
2017-Oct-01 17:29N 47°18' W 122°29'3 0.1
2017-Sep-29 21:08N 47°19' W 122°34'4 0.1
2017-Sep-28 18:38N 47°20' W 122°28'0 0.5
2017-Sep-28 18:26N 47°20' W 122°28'3 6.5
2017-Sep-28 18:00N 47°22' W 122°25'3 5.5
2017-Sep-28 17:30N 47°24' W 122°23'3 6.6
2017-Sep-28 17:00N 47°27' W 122°23'3 6.8
2017-Sep-28 16:30N 47°31' W 122°24'4 6.9
2017-Sep-28 16:00N 47°34' W 122°26'3 6.4
2017-Sep-28 15:29N 47°37' W 122°26'3 6.5
2017-Sep-28 15:00N 47°40' W 122°26'1 0.7
2017-Sep-28 13:30N 47°41' W 122°24'0 0.0
2017-Sep-28 13:00N 47°41' W 122°24'0 0.0
2017-Sep-28 12:27N 47°41' W 122°24'0 0.0
2017-Sep-28 12:00N 47°41' W 122°24'0 0.0
2017-Sep-28 11:30N 47°41' W 122°24'0 0.0
2017-Sep-28 10:54N 47°41' W 122°24'0 0.0
2017-Sep-28 10:30N 47°41' W 122°24'0 0.0
2017-Sep-28 10:00N 47°41' W 122°24'0 0.0
2017-Sep-28 09:30N 47°41' W 122°24'0 0.0
2017-Sep-28 08:57N 47°41' W 122°24'0 0.0
2017-Sep-28 08:27N 47°41' W 122°24'0 0.0
2017-Sep-28 08:00N 47°41' W 122°24'0 0.0
2017-Sep-28 07:30N 47°41' W 122°24'0 0.0
2017-Sep-28 07:00N 47°41' W 122°24'0 0.0
2017-Sep-28 06:30N 47°41' W 122°24'0 0.0
2017-Sep-27 23:24N 47°41' W 122°24'0 0.0
2017-Sep-27 23:00N 47°41' W 122°24'0 0.1
2017-Sep-27 22:30N 47°41' W 122°25'0 0.0
2017-Sep-27 20:45N 47°41' W 122°24'1 1.2
2017-Sep-27 20:18N 47°41' W 122°25'1 1.9
2017-Sep-27 20:00N 47°41' W 122°25'1 1.2
2017-Sep-27 19:29N 47°41' W 122°25'1 2.1
2017-Sep-27 19:00N 47°41' W 122°26'1 1.7
2017-Sep-27 18:30N 47°41' W 122°25'1 2.6
2017-Sep-27 17:59N 47°42' W 122°24'4 0.2
2017-Sep-27 01:13N 47°42' W 122°30'2 5.4
2017-Sep-27 00:56N 47°40' W 122°29'2 2.1
2017-Sep-26 23:50N 47°38' W 122°29'2 1.9
2017-Sep-26 22:54N 47°36' W 122°29'1 1.4
2017-Sep-26 22:30N 47°36' W 122°29'1 0.0
2017-Sep-26 00:38N 47°36' W 122°30'0 1.0
2017-Sep-26 00:30N 47°36' W 122°30'1 1.9
2017-Sep-26 00:00N 47°36' W 122°29'0 0.3
2017-Sep-25 22:57N 47°36' W 122°29'0 0.9
2017-Sep-25 22:30N 47°36' W 122°29'1 1.6
2017-Sep-25 22:00N 47°36' W 122°28'3 5.3
2017-Sep-25 21:30N 47°37' W 122°24'1 1.9
2017-Sep-25 21:00N 47°36' W 122°23'1 2.5
2017-Sep-25 20:30N 47°37' W 122°25'1 1.0
2017-Sep-25 19:59N 47°37' W 122°25'2 4.0
2017-Sep-25 19:29N 47°39' W 122°27'2 4.4
2017-Sep-25 19:00N 47°41' W 122°25'0 0.4
2017-Sep-25 18:28N 47°41' W 122°24'0 0.0
2017-Sep-25 17:58N 47°41' W 122°24'0 0.0
2017-Sep-25 17:28N 47°41' W 122°24'0 0.0
2017-Sep-25 16:58N 47°41' W 122°24'0 0.0
2017-Sep-25 15:10N 47°41' W 122°24'0 0.0
2017-Sep-25 14:55N 47°41' W 122°24'0 0.0
2017-Sep-25 14:28N 47°41' W 122°24'0 0.1
2017-Sep-25 13:58N 47°41' W 122°24'0 0.0
2017-Sep-25 13:28N 47°41' W 122°24'0 0.0
2017-Sep-25 12:58N 47°41' W 122°24'0 0.0
2017-Sep-25 12:25N 47°41' W 122°24'0 0.0
2017-Sep-25 11:58N 47°41' W 122°24'0 0.0
2017-Sep-25 11:19N 47°41' W 122°24'0 0.0
2017-Sep-25 10:58N 47°41' W 122°24'0 0.0
2017-Sep-25 10:28N 47°41' W 122°24'0 0.0
2017-Sep-25 09:58N 47°41' W 122°24'0 0.0
2017-Sep-25 09:25N 47°41' W 122°24'0 0.0
2017-Sep-25 08:58N 47°41' W 122°24'0 0.0
2017-Sep-25 08:28N 47°41' W 122°24'0 0.0
2017-Sep-25 07:58N 47°41' W 122°24'0 0.0
2017-Sep-25 07:28N 47°41' W 122°24'0 0.0
2017-Sep-25 03:16N 47°41' W 122°24'0 0.0
2017-Sep-25 02:58N 47°41' W 122°24'0 0.0
2017-Sep-25 02:28N 47°41' W 122°24'0 0.0
2017-Sep-25 01:58N 47°41' W 122°24'0 0.0
2017-Sep-25 01:28N 47°41' W 122°24'0 0.0
2017-Sep-25 00:58N 47°41' W 122°24'0 1.1
2017-Sep-25 00:30N 47°41' W 122°25'1 1.2
2017-Sep-25 00:00N 47°41' W 122°26'0 0.2
2017-Sep-24 23:30N 47°41' W 122°26'0 0.4
2017-Sep-24 23:00N 47°41' W 122°26'0 0.8
2017-Sep-24 22:30N 47°41' W 122°25'0 0.2
2017-Sep-24 20:56N 47°41' W 122°24'1 1.3
2017-Sep-24 20:30N 47°41' W 122°25'0 0.6
2017-Sep-24 20:00N 47°41' W 122°25'0 0.7
2017-Sep-24 19:30N 47°41' W 122°25'0 0.6
2017-Sep-24 19:00N 47°41' W 122°25'0 0.8
2017-Sep-24 18:30N 47°41' W 122°25'  

Dump ship's entire track history